Time;durP1;ratioP1;P1;durP2;ratioP2;P2;SDS_P1;SDS_P2;PMS_P1;PMS_P2;Temp;Humidity;BMP_temperature;BMP_pressure;BME280_temperature;BME280_humidity;BME280_pressure;Samples;Min_cycle;Max_cycle;Signal;HPM_P1;HPM_P2
2022/01/11 00:00:58;;;;;;;;;;;1.70;99.90;;;;;;5086502;28;19920;-67
2022/01/11 00:03:25;;;;;;;;;;;1.60;99.90;;;;;;5105984;28;19927;-67
2022/01/11 00:05:57;;;;;;;;;;;1.60;99.90;;;;;;5106336;28;19927;-67
2022/01/11 00:08:30;;;;;;;;;;;1.60;99.90;;;;;;5101573;28;19920;-67
2022/01/11 00:11:03;;;;;;;;;;;1.60;99.90;;;;;;5106453;28;19983;-67
2022/01/11 00:13:30;;;;;;;;;;;1.60;99.90;;;;;;5105727;28;20257;-69
2022/01/11 00:15:56;;;;;;;;;;;1.50;99.90;;;;;;5101764;28;20204;-68
2022/01/11 00:18:23;;;;;;;;;;;1.50;99.90;;;;;;5089418;28;20116;-68
2022/01/11 00:20:50;;;;;;;;;;;1.60;99.90;;;;;;5085459;28;19921;-69
2022/01/11 00:26:01;;;;;;;;;;;1.50;99.90;;;;;;5085484;28;19928;-68
2022/01/11 00:28:30;;;;;;;;;;;1.50;99.90;;;;;;5085415;28;20230;-68
2022/01/11 00:30:57;;;;;;;;;;;1.60;99.90;;;;;;5085841;28;19921;-68
2022/01/11 00:33:30;;;;;;;;;;;1.50;99.90;;;;;;5086858;28;19931;-68
2022/01/11 00:35:59;;;;;;;;;;;1.60;99.90;;;;;;5086578;28;19920;-68
2022/01/11 00:38:28;;;;;;;;;;;1.50;99.90;;;;;;5086277;28;19959;-68
2022/01/11 00:40:56;;;;;;;;;;;1.40;99.90;;;;;;5145307;22;19928;-73
2022/01/11 00:43:23;;;;;;;;;;;1.40;99.90;;;;;;5106349;28;19926;-73
2022/01/11 00:45:52;;;;;;;;;;;1.40;99.90;;;;;;5105967;28;19928;-72
2022/01/11 00:48:19;;;;;;;;;;;1.40;99.90;;;;;;5105787;28;19920;-73
2022/01/11 00:50:47;;;;;;;;;;;1.40;99.90;;;;;;5096874;28;20298;-72
2022/01/11 00:53:13;;;;;;;;;;;1.30;99.90;;;;;;5084748;28;19920;-72
2022/01/11 00:55:44;;;;;;;;;;;1.30;99.90;;;;;;5085393;28;19927;-72
2022/01/11 00:58:10;;;;;;;;;;;1.30;99.90;;;;;;5085770;28;19991;-73
2022/01/11 01:00:38;;;;;;;;;;;1.30;99.90;;;;;;5085032;28;20207;-72
2022/01/11 01:03:04;;;;;;;;;;;1.40;99.90;;;;;;5084720;28;19920;-73
2022/01/11 01:05:31;;;;;;;;;;;1.40;99.90;;;;;;5084586;28;19925;-73
2022/01/11 01:07:59;;;;;;;;;;;1.50;99.90;;;;;;5083843;28;19928;-73
2022/01/11 01:10:29;;;;;;;;;;;1.50;99.90;;;;;;5084275;28;20207;-73
2022/01/11 01:12:57;;;;;;;;;;;1.50;99.90;;;;;;5084238;28;19925;-72
2022/01/11 01:15:25;;;;;;;;;;;1.50;99.90;;;;;;5085165;28;19928;-72
2022/01/11 01:17:52;;;;;;;;;;;1.50;99.90;;;;;;5085043;28;19920;-73
2022/01/11 01:20:19;;;;;;;;;;;1.60;99.90;;;;;;5085027;28;19927;-73
2022/01/11 01:22:46;;;;;;;;;;;1.60;99.90;;;;;;5084568;28;19924;-72
2022/01/11 01:25:13;;;;;;;;;;;1.70;99.90;;;;;;5084141;28;19929;-73
2022/01/11 01:27:40;;;;;;;;;;;1.80;99.90;;;;;;5084427;28;19920;-73
2022/01/11 01:30:08;;;;;;;;;;;1.80;99.90;;;;;;5084196;28;19943;-73
2022/01/11 01:32:35;;;;;;;;;;;1.70;99.90;;;;;;5082686;28;20120;-73
2022/01/11 01:35:04;;;;;;;;;;;1.70;99.90;;;;;;5084655;28;19921;-73
2022/01/11 01:37:31;;;;;;;;;;;1.70;99.90;;;;;;5084847;28;19921;-72
2022/01/11 01:39:58;;;;;;;;;;;1.80;99.90;;;;;;5084190;28;19921;-73
2022/01/11 01:42:27;;;;;;;;;;;1.80;99.90;;;;;;5083788;28;19920;-73
2022/01/11 01:44:53;;;;;;;;;;;1.90;99.90;;;;;;5084266;28;19920;-73
2022/01/11 01:47:21;;;;;;;;;;;1.90;99.90;;;;;;5083804;28;19920;-72
2022/01/11 01:49:48;;;;;;;;;;;1.90;99.90;;;;;;5083757;28;19920;-73
2022/01/11 01:52:15;;;;;;;;;;;1.90;99.90;;;;;;5083433;28;20226;-73
2022/01/11 01:54:42;;;;;;;;;;;1.90;99.90;;;;;;5084405;28;20060;-73
2022/01/11 01:57:09;;;;;;;;;;;1.90;99.90;;;;;;5084475;28;19920;-73
2022/01/11 01:59:35;;;;;;;;;;;2.00;99.90;;;;;;5084621;28;19920;-72
2022/01/11 02:02:02;;;;;;;;;;;2.00;99.90;;;;;;5083249;28;20230;-72
2022/01/11 02:04:30;;;;;;;;;;;2.00;99.90;;;;;;5083905;28;19983;-72
2022/01/11 02:06:57;;;;;;;;;;;2.10;99.90;;;;;;5084504;28;19920;-72
2022/01/11 02:09:23;;;;;;;;;;;2.10;99.90;;;;;;5084111;28;19927;-72
2022/01/11 02:11:50;;;;;;;;;;;2.10;99.90;;;;;;5083151;28;19928;-72
2022/01/11 02:14:17;;;;;;;;;;;2.10;99.90;;;;;;5083841;28;19924;-72
2022/01/11 02:16:43;;;;;;;;;;;2.10;99.90;;;;;;5084075;28;20208;-73
2022/01/11 02:19:10;;;;;;;;;;;2.10;99.90;;;;;;5084314;28;19971;-72
2022/01/11 02:21:39;;;;;;;;;;;2.10;99.90;;;;;;5083269;28;19958;-72
2022/01/11 02:24:06;;;;;;;;;;;2.10;99.90;;;;;;5083926;28;19992;-73
2022/01/11 02:26:32;;;;;;;;;;;2.00;99.90;;;;;;5084164;28;19979;-72
2022/01/11 02:28:59;;;;;;;;;;;2.10;99.90;;;;;;5084034;28;19956;-72
2022/01/11 02:31:25;;;;;;;;;;;2.00;99.90;;;;;;5083283;28;19928;-73
2022/01/11 02:33:54;;;;;;;;;;;2.00;99.90;;;;;;5083781;28;19927;-72
2022/01/11 02:36:21;;;;;;;;;;;2.00;99.90;;;;;;5084083;28;19927;-72
2022/01/11 02:38:52;;;;;;;;;;;2.00;99.90;;;;;;5084432;28;19927;-72
2022/01/11 02:41:19;;;;;;;;;;;2.00;99.90;;;;;;5082774;28;20115;-74
2022/01/11 02:43:47;;;;;;;;;;;2.00;99.90;;;;;;5082974;28;19920;-73
2022/01/11 02:46:14;;;;;;;;;;;2.00;99.90;;;;;;5084137;28;19921;-72
2022/01/11 02:48:41;;;;;;;;;;;2.00;99.90;;;;;;5083918;28;19925;-72
2022/01/11 02:51:08;;;;;;;;;;;2.10;99.90;;;;;;5083390;28;19921;-73
2022/01/11 02:53:39;;;;;;;;;;;2.10;99.90;;;;;;5083280;28;19920;-72
2022/01/11 02:56:06;;;;;;;;;;;2.10;99.90;;;;;;5083646;28;19926;-71
2022/01/11 02:58:33;;;;;;;;;;;2.10;99.90;;;;;;5083607;28;19929;-71
2022/01/11 03:01:00;;;;;;;;;;;2.00;99.90;;;;;;5083484;28;19920;-72
2022/01/11 03:03:26;;;;;;;;;;;2.00;99.90;;;;;;5082712;28;19921;-72
2022/01/11 03:05:54;;;;;;;;;;;2.00;99.90;;;;;;5083641;28;19921;-72
2022/01/11 03:08:21;;;;;;;;;;;1.90;99.90;;;;;;5083396;28;19920;-71
2022/01/11 03:10:49;;;;;;;;;;;1.90;99.90;;;;;;5082805;28;20203;-72
2022/01/11 03:13:18;;;;;;;;;;;1.90;99.90;;;;;;5083036;28;19940;-73
2022/01/11 03:15:45;;;;;;;;;;;1.90;99.90;;;;;;5083183;28;19920;-71
2022/01/11 03:18:12;;;;;;;;;;;1.90;99.90;;;;;;5083691;28;19921;-72
2022/01/11 03:20:40;;;;;;;;;;;1.90;99.90;;;;;;5083440;28;19921;-71
2022/01/11 03:23:07;;;;;;;;;;;1.90;99.90;;;;;;5082550;28;19920;-72
2022/01/11 03:25:34;;;;;;;;;;;1.80;99.90;;;;;;5082676;28;20258;-72
2022/01/11 03:28:00;;;;;;;;;;;1.80;99.90;;;;;;5082896;28;19921;-72
2022/01/11 03:30:28;;;;;;;;;;;1.80;99.90;;;;;;5083362;28;19920;-72
2022/01/11 03:32:55;;;;;;;;;;;1.80;99.90;;;;;;5082666;28;19928;-74
2022/01/11 03:35:23;;;;;;;;;;;1.80;99.90;;;;;;5082740;28;19928;-74
2022/01/11 03:37:50;;;;;;;;;;;1.70;99.90;;;;;;5082268;28;20220;-74
2022/01/11 03:40:18;;;;;;;;;;;1.70;99.90;;;;;;5082732;28;19928;-73
2022/01/11 03:42:44;;;;;;;;;;;1.80;99.90;;;;;;5082477;28;19928;-74
2022/01/11 03:45:12;;;;;;;;;;;1.70;99.90;;;;;;5083139;28;20146;-73
2022/01/11 03:47:40;;;;;;;;;;;1.70;99.90;;;;;;5083413;28;19920;-72
2022/01/11 03:50:08;;;;;;;;;;;1.70;99.90;;;;;;5083151;28;19920;-74
2022/01/11 03:52:35;;;;;;;;;;;1.70;99.90;;;;;;5082126;28;19927;-74
2022/01/11 03:55:10;;;;;;;;;;;1.70;99.90;;;;;;5082817;28;19927;-74
2022/01/11 03:57:36;;;;;;;;;;;1.70;99.90;;;;;;5086093;28;19920;-74
2022/01/11 04:00:05;;;;;;;;;;;1.70;99.90;;;;;;5086166;28;19932;-73
2022/01/11 04:02:32;;;;;;;;;;;1.70;99.90;;;;;;5084692;28;19921;-73
2022/01/11 04:05:00;;;;;;;;;;;1.70;99.90;;;;;;5086570;28;19927;-73
2022/01/11 04:07:27;;;;;;;;;;;1.70;99.90;;;;;;5086617;28;19966;-72
2022/01/11 04:09:55;;;;;;;;;;;1.70;99.90;;;;;;5086216;28;19920;-73
2022/01/11 04:12:22;;;;;;;;;;;1.70;99.90;;;;;;5085108;28;19921;-73
2022/01/11 04:14:48;;;;;;;;;;;1.70;99.90;;;;;;5086244;28;19920;-73
2022/01/11 04:17:15;;;;;;;;;;;1.60;99.90;;;;;;5086231;28;20138;-72
2022/01/11 04:19:42;;;;;;;;;;;1.60;99.90;;;;;;5086424;28;19926;-73
2022/01/11 04:22:10;;;;;;;;;;;1.60;99.90;;;;;;5085504;28;20219;-74
2022/01/11 04:24:37;;;;;;;;;;;1.60;99.90;;;;;;5085694;28;19920;-74
2022/01/11 04:27:03;;;;;;;;;;;1.60;99.90;;;;;;5085656;28;19929;-74
2022/01/11 04:29:30;;;;;;;;;;;1.60;99.90;;;;;;5085319;28;20082;-74
2022/01/11 04:31:57;;;;;;;;;;;1.60;99.90;;;;;;5084968;28;19927;-71
2022/01/11 04:34:25;;;;;;;;;;;1.60;99.90;;;;;;5085967;28;19927;-71
2022/01/11 04:36:51;;;;;;;;;;;1.60;99.90;;;;;;5086170;28;19920;-71
2022/01/11 04:39:19;;;;;;;;;;;1.60;99.90;;;;;;5086197;28;19927;-72
2022/01/11 04:41:46;;;;;;;;;;;1.60;99.90;;;;;;5085270;28;19921;-72
2022/01/11 04:44:12;;;;;;;;;;;1.60;99.90;;;;;;5084647;28;19927;-73
2022/01/11 04:46:39;;;;;;;;;;;1.60;99.90;;;;;;5085612;28;19927;-71
2022/01/11 04:49:06;;;;;;;;;;;1.70;99.90;;;;;;5085845;28;19920;-72
2022/01/11 04:51:35;;;;;;;;;;;1.70;99.90;;;;;;5085353;28;19935;-72
2022/01/11 04:54:01;;;;;;;;;;;1.70;99.90;;;;;;5084159;28;20026;-72
2022/01/11 04:56:29;;;;;;;;;;;1.70;99.90;;;;;;5084684;28;19927;-72
2022/01/11 04:58:56;;;;;;;;;;;1.60;99.90;;;;;;5085396;28;19920;-72
2022/01/11 05:01:23;;;;;;;;;;;1.60;99.90;;;;;;5084869;28;19927;-71
2022/01/11 05:03:49;;;;;;;;;;;1.70;99.90;;;;;;5084626;28;19921;-72
2022/01/11 05:06:16;;;;;;;;;;;1.70;99.90;;;;;;5084699;28;20097;-72
2022/01/11 05:08:44;;;;;;;;;;;1.70;99.90;;;;;;5085321;28;19928;-71
2022/01/11 05:11:10;;;;;;;;;;;1.70;99.90;;;;;;5084878;28;19928;-71
2022/01/11 05:13:38;;;;;;;;;;;1.70;99.90;;;;;;5085122;28;19943;-72
2022/01/11 05:16:05;;;;;;;;;;;1.70;99.90;;;;;;5085231;28;19920;-73
2022/01/11 05:18:35;;;;;;;;;;;1.70;99.90;;;;;;5085170;28;19921;-71
2022/01/11 05:21:02;;;;;;;;;;;1.60;99.90;;;;;;5084988;28;19963;-71
2022/01/11 05:23:29;;;;;;;;;;;1.60;99.90;;;;;;5084133;28;20123;-72
2022/01/11 05:25:56;;;;;;;;;;;1.70;99.90;;;;;;5084966;28;19924;-72
2022/01/11 05:28:22;;;;;;;;;;;1.70;99.90;;;;;;5084999;28;19927;-72
2022/01/11 05:30:50;;;;;;;;;;;1.70;99.90;;;;;;5084585;28;19967;-72
2022/01/11 05:33:17;;;;;;;;;;;1.70;99.90;;;;;;5084340;28;19924;-72
2022/01/11 05:35:43;;;;;;;;;;;1.70;99.90;;;;;;5084625;28;19927;-72
2022/01/11 05:38:10;;;;;;;;;;;1.70;99.90;;;;;;5084765;28;19921;-72
2022/01/11 05:40:37;;;;;;;;;;;1.70;99.90;;;;;;5084347;28;19927;-72
2022/01/11 05:43:03;;;;;;;;;;;1.70;99.90;;;;;;5084319;28;19921;-73
2022/01/11 05:45:30;;;;;;;;;;;1.70;99.90;;;;;;5083763;28;19927;-74
2022/01/11 05:47:58;;;;;;;;;;;1.70;99.90;;;;;;5084386;28;19927;-72
2022/01/11 05:50:25;;;;;;;;;;;1.70;99.90;;;;;;5084394;28;19924;-73
2022/01/11 05:52:51;;;;;;;;;;;1.70;99.90;;;;;;5083102;28;20105;-74
2022/01/11 05:55:18;;;;;;;;;;;1.70;99.90;;;;;;5083399;28;19927;-73
2022/01/11 05:57:45;;;;;;;;;;;1.70;99.90;;;;;;5084498;28;19927;-72
2022/01/11 06:00:14;;;;;;;;;;;1.80;99.90;;;;;;5084356;28;19928;-73
2022/01/11 06:02:41;;;;;;;;;;;1.80;99.90;;;;;;5083406;28;19934;-73
2022/01/11 06:05:10;;;;;;;;;;;1.80;99.90;;;;;;5084072;28;19920;-73
2022/01/11 06:07:37;;;;;;;;;;;1.80;99.90;;;;;;5084439;28;19979;-73
2022/01/11 06:10:04;;;;;;;;;;;1.80;99.90;;;;;;5083940;28;20215;-71
2022/01/11 06:12:30;;;;;;;;;;;1.80;99.90;;;;;;5083736;28;19921;-72
2022/01/11 06:14:57;;;;;;;;;;;1.80;99.90;;;;;;5082970;28;20208;-72
2022/01/11 06:17:23;;;;;;;;;;;1.80;99.90;;;;;;5084056;28;20215;-72
2022/01/11 06:19:50;;;;;;;;;;;1.80;99.90;;;;;;5083375;28;19927;-71
2022/01/11 06:22:18;;;;;;;;;;;1.80;99.90;;;;;;5071178;28;19921;-75
2022/01/11 06:24:44;;;;;;;;;;;1.80;99.90;;;;;;5083678;28;19926;-74
2022/01/11 06:27:11;;;;;;;;;;;1.80;99.90;;;;;;5084002;28;19920;-73
2022/01/11 06:29:43;;;;;;;;;;;1.90;99.90;;;;;;5083776;28;19927;-73
2022/01/11 06:32:09;;;;;;;;;;;1.90;99.90;;;;;;5083396;28;19920;-73
2022/01/11 06:34:36;;;;;;;;;;;1.90;99.90;;;;;;5082598;28;20227;-73
2022/01/11 06:37:03;;;;;;;;;;;1.90;99.90;;;;;;5084105;28;20112;-73
2022/01/11 06:39:31;;;;;;;;;;;1.90;99.90;;;;;;5084100;28;19920;-73
2022/01/11 06:41:57;;;;;;;;;;;1.90;99.90;;;;;;5110124;22;19926;-75
2022/01/11 06:44:24;;;;;;;;;;;2.00;99.90;;;;;;5103845;28;19920;-74
2022/01/11 06:46:50;;;;;;;;;;;1.90;99.90;;;;;;5103378;28;19942;-74
2022/01/11 06:49:17;;;;;;;;;;;1.90;99.90;;;;;;5103322;28;19929;-72
2022/01/11 06:51:43;;;;;;;;;;;1.90;99.90;;;;;;5101829;28;19924;-74
2022/01/11 06:54:10;;;;;;;;;;;1.90;99.90;;;;;;5100810;28;19926;-74
2022/01/11 06:56:38;;;;;;;;;;;1.90;99.90;;;;;;5103552;28;19927;-74
2022/01/11 06:59:04;;;;;;;;;;;1.90;99.90;;;;;;5103296;28;19927;-74
2022/01/11 07:01:32;;;;;;;;;;;1.90;99.90;;;;;;5103500;28;19942;-74
2022/01/11 07:03:58;;;;;;;;;;;1.90;99.90;;;;;;5097518;28;19932;-74
2022/01/11 07:06:25;;;;;;;;;;;1.90;99.90;;;;;;5103211;28;19920;-74
2022/01/11 07:08:51;;;;;;;;;;;1.90;99.90;;;;;;5103595;28;19920;-74
2022/01/11 07:11:18;;;;;;;;;;;1.90;99.90;;;;;;5102424;28;20225;-73
2022/01/11 07:13:46;;;;;;;;;;;1.90;99.90;;;;;;5098635;28;19928;-74
2022/01/11 07:16:13;;;;;;;;;;;1.90;99.90;;;;;;5095494;28;19924;-73
2022/01/11 07:18:40;;;;;;;;;;;1.90;99.90;;;;;;5097832;28;19942;-74
2022/01/11 07:21:06;;;;;;;;;;;1.90;99.90;;;;;;5094128;28;19987;-74
2022/01/11 07:23:33;;;;;;;;;;;2.00;99.90;;;;;;5093239;28;19927;-72
2022/01/11 07:25:59;;;;;;;;;;;2.00;99.90;;;;;;5103940;28;19920;-76
2022/01/11 07:28:27;;;;;;;;;;;2.10;99.90;;;;;;5100111;28;19919;-74
2022/01/11 07:30:55;;;;;;;;;;;2.10;99.90;;;;;;5106494;28;20231;-74
2022/01/11 07:33:22;;;;;;;;;;;2.10;99.90;;;;;;5094189;28;19942;-74
2022/01/11 07:35:48;;;;;;;;;;;2.10;99.90;;;;;;5106979;28;19920;-74
2022/01/11 07:38:15;;;;;;;;;;;2.00;99.90;;;;;;5106069;28;19920;-75
2022/01/11 07:40:41;;;;;;;;;;;2.00;99.90;;;;;;5093090;28;19927;-74
2022/01/11 07:43:08;;;;;;;;;;;2.00;99.90;;;;;;5089613;28;19921;-73
2022/01/11 07:45:35;;;;;;;;;;;2.00;99.90;;;;;;5111526;28;19926;-73
2022/01/11 07:48:03;;;;;;;;;;;2.00;99.90;;;;;;5108501;28;19920;-74
2022/01/11 07:50:29;;;;;;;;;;;2.00;99.90;;;;;;5107076;28;19927;-73
2022/01/11 07:52:56;;;;;;;;;;;2.00;99.90;;;;;;5102019;28;19920;-74
2022/01/11 07:55:22;;;;;;;;;;;2.00;99.90;;;;;;5106601;28;20238;-74
2022/01/11 07:57:49;;;;;;;;;;;2.00;99.90;;;;;;5106759;28;19920;-74
2022/01/11 08:00:16;;;;;;;;;;;2.00;99.90;;;;;;5106809;28;19926;-73
2022/01/11 08:02:42;;;;;;;;;;;2.00;99.90;;;;;;5104742;28;19927;-73
2022/01/11 08:05:11;;;;;;;;;;;2.00;99.90;;;;;;5086454;28;20118;-74
2022/01/11 08:07:39;;;;;;;;;;;2.00;99.90;;;;;;5086393;28;19921;-74
2022/01/11 08:10:06;;;;;;;;;;;2.00;99.90;;;;;;5086387;28;19939;-76
2022/01/11 08:12:33;;;;;;;;;;;2.10;99.90;;;;;;5097979;28;19921;-76
2022/01/11 08:14:59;;;;;;;;;;;2.10;99.90;;;;;;5085350;28;19920;-74
2022/01/11 08:17:28;;;;;;;;;;;2.10;99.90;;;;;;5085523;28;19920;-74
2022/01/11 08:19:55;;;;;;;;;;;2.10;99.90;;;;;;5086336;28;19924;-74
2022/01/11 08:22:23;;;;;;;;;;;2.10;99.90;;;;;;5088163;28;19983;-74
2022/01/11 08:24:49;;;;;;;;;;;2.20;99.90;;;;;;5099392;28;20230;-74
2022/01/11 08:27:17;;;;;;;;;;;2.20;99.90;;;;;;5085866;28;19925;-76
2022/01/11 08:29:43;;;;;;;;;;;2.20;99.90;;;;;;5103070;28;19943;-73
2022/01/11 08:32:10;;;;;;;;;;;2.10;99.90;;;;;;5105432;28;20092;-74
2022/01/11 08:34:37;;;;;;;;;;;2.20;99.90;;;;;;5105546;28;19920;-73
2022/01/11 08:37:04;;;;;;;;;;;2.20;99.90;;;;;;5105883;28;19924;-73
2022/01/11 08:39:32;;;;;;;;;;;2.30;99.90;;;;;;5100766;28;19920;-73
2022/01/11 08:41:59;;;;;;;;;;;2.30;99.90;;;;;;5103579;28;20230;-73
2022/01/11 08:44:25;;;;;;;;;;;2.30;99.90;;;;;;5096311;28;19920;-73
2022/01/11 08:46:52;;;;;;;;;;;2.40;99.90;;;;;;5085796;28;19927;-74
2022/01/11 08:49:19;;;;;;;;;;;2.30;99.90;;;;;;5085538;28;19927;-73
2022/01/11 08:51:45;;;;;;;;;;;2.40;99.90;;;;;;5085581;28;19920;-74
2022/01/11 08:54:12;;;;;;;;;;;2.30;99.90;;;;;;5085094;28;19920;-73
2022/01/11 08:56:40;;;;;;;;;;;2.30;99.90;;;;;;5085638;28;19921;-74
2022/01/11 08:59:07;;;;;;;;;;;2.30;99.90;;;;;;5090614;28;19920;-74
2022/01/11 09:01:34;;;;;;;;;;;2.40;99.90;;;;;;5093077;28;19921;-74
2022/01/11 09:04:01;;;;;;;;;;;2.40;99.90;;;;;;5084936;28;19921;-74
2022/01/11 09:06:28;;;;;;;;;;;2.40;99.90;;;;;;5085502;28;19926;-74
2022/01/11 09:08:54;;;;;;;;;;;2.40;99.90;;;;;;5087284;28;19924;-74
2022/01/11 09:11:21;;;;;;;;;;;2.40;99.90;;;;;;5087837;28;19991;-74
2022/01/11 09:13:49;;;;;;;;;;;2.40;99.90;;;;;;5090145;28;19920;-76
2022/01/11 09:16:17;;;;;;;;;;;2.50;99.90;;;;;;5105415;28;19920;-76
2022/01/11 09:18:44;;;;;;;;;;;2.40;99.90;;;;;;5105229;28;19963;-72
2022/01/11 09:21:10;;;;;;;;;;;2.50;99.90;;;;;;5105324;28;19920;-74
2022/01/11 09:23:38;;;;;;;;;;;2.50;99.90;;;;;;5090272;28;19921;-74
2022/01/11 09:26:04;;;;;;;;;;;2.50;99.90;;;;;;5084514;28;19920;-73
2022/01/11 09:28:31;;;;;;;;;;;2.60;99.90;;;;;;5084770;28;20230;-73
2022/01/11 09:30:59;;;;;;;;;;;2.60;99.90;;;;;;5085506;28;19927;-73
2022/01/11 09:33:25;;;;;;;;;;;2.60;99.90;;;;;;5088534;28;19927;-73
2022/01/11 09:35:52;;;;;;;;;;;2.60;99.90;;;;;;5084650;28;19926;-74
2022/01/11 09:38:19;;;;;;;;;;;2.60;99.90;;;;;;5084730;28;19962;-74
2022/01/11 09:40:45;;;;;;;;;;;2.60;99.90;;;;;;5084346;28;19990;-74
2022/01/11 09:43:12;;;;;;;;;;;2.60;99.90;;;;;;5088764;28;19920;-74
2022/01/11 09:45:39;;;;;;;;;;;2.70;99.90;;;;;;5104373;28;19920;-77
2022/01/11 09:48:07;;;;;;;;;;;2.70;99.90;;;;;;5104664;28;19927;-76
2022/01/11 09:50:34;;;;;;;;;;;2.80;99.90;;;;;;5104699;28;19926;-77
2022/01/11 09:53:00;;;;;;;;;;;2.80;99.90;;;;;;5097628;28;19927;-76
2022/01/11 09:55:27;;;;;;;;;;;2.80;99.90;;;;;;5104501;28;19927;-74
2022/01/11 09:57:53;;;;;;;;;;;2.80;99.90;;;;;;5104735;28;19920;-74
2022/01/11 10:00:20;;;;;;;;;;;2.80;99.90;;;;;;5104387;28;19920;-77
2022/01/11 10:02:47;;;;;;;;;;;2.80;99.90;;;;;;5101851;28;19924;-76
2022/01/11 10:05:15;;;;;;;;;;;2.80;99.90;;;;;;5084126;28;19921;-76
2022/01/11 10:07:43;;;;;;;;;;;2.90;99.90;;;;;;5083962;28;19921;-74
2022/01/11 10:10:15;;;;;;;;;;;2.90;99.90;;;;;;5096070;28;19930;-76
2022/01/11 10:12:42;;;;;;;;;;;2.90;99.90;;;;;;5103471;28;20188;-76
2022/01/11 10:15:09;;;;;;;;;;;3.00;99.90;;;;;;5097162;28;19928;-74
2022/01/11 10:17:38;;;;;;;;;;;3.00;99.90;;;;;;5104309;28;19920;-73
2022/01/11 10:20:06;;;;;;;;;;;3.00;99.90;;;;;;5104339;28;20020;-74
2022/01/11 10:22:34;;;;;;;;;;;3.10;99.90;;;;;;5098829;28;19920;-74
2022/01/11 10:25:01;;;;;;;;;;;3.10;99.90;;;;;;5104073;28;19920;-74
2022/01/11 10:27:30;;;;;;;;;;;3.10;99.90;;;;;;5104349;28;20088;-74
2022/01/11 10:29:57;;;;;;;;;;;3.10;99.90;;;;;;5104196;28;19927;-74
2022/01/11 10:32:25;;;;;;;;;;;3.10;99.90;;;;;;5103468;28;19939;-74
2022/01/11 10:34:53;;;;;;;;;;;3.10;99.90;;;;;;5097703;28;19921;-74
2022/01/11 10:37:28;;;;;;;;;;;3.10;99.90;;;;;;5083982;28;19927;-75
2022/01/11 10:40:00;;;;;;;;;;;3.20;99.90;;;;;;5083602;28;20026;-74
2022/01/11 10:42:30;;;;;;;;;;;3.20;99.90;;;;;;5087119;28;19920;-74
2022/01/11 10:44:59;;;;;;;;;;;3.10;99.90;;;;;;5103798;28;19926;-75
2022/01/11 10:47:27;;;;;;;;;;;3.10;99.90;;;;;;5103815;28;19920;-75
2022/01/11 10:49:55;;;;;;;;;;;3.10;99.90;;;;;;5104126;28;19987;-77
2022/01/11 10:52:23;;;;;;;;;;;3.20;99.90;;;;;;5101375;28;19920;-74
2022/01/11 10:54:49;;;;;;;;;;;3.20;99.90;;;;;;5086356;28;19928;-74
2022/01/11 10:57:19;;;;;;;;;;;3.30;99.90;;;;;;5083511;28;19927;-74
2022/01/11 11:00:03;;;;;;;;;;;3.30;99.90;;;;;;5083853;28;20318;-74
2022/01/11 11:02:30;;;;;;;;;;;3.40;99.90;;;;;;5087820;28;19920;-76
2022/01/11 11:04:58;;;;;;;;;;;3.40;99.90;;;;;;5104740;28;20096;-74
2022/01/11 11:07:26;;;;;;;;;;;3.40;99.90;;;;;;5108442;28;20252;-74
2022/01/11 11:09:52;;;;;;;;;;;3.40;99.90;;;;;;5107388;28;20215;-76
2022/01/11 11:12:21;;;;;;;;;;;3.40;99.90;;;;;;5106195;28;19924;-76
2022/01/11 11:14:49;;;;;;;;;;;3.40;99.90;;;;;;5104914;28;19920;-76
2022/01/11 11:17:25;;;;;;;;;;;3.40;99.90;;;;;;5107657;28;19920;-76
2022/01/11 11:19:56;;;;;;;;;;;3.40;99.90;;;;;;5097612;28;19921;-73
2022/01/11 11:22:24;;;;;;;;;;;3.40;99.90;;;;;;5087678;28;19943;-74
2022/01/11 11:24:52;;;;;;;;;;;3.40;99.90;;;;;;5087135;28;19920;-74
2022/01/11 11:27:20;;;;;;;;;;;3.40;99.90;;;;;;5087294;28;19927;-74
2022/01/11 11:29:48;;;;;;;;;;;3.40;99.90;;;;;;5087717;28;19961;-74
2022/01/11 11:32:16;;;;;;;;;;;3.40;99.90;;;;;;5086368;28;20204;-74
2022/01/11 11:34:44;;;;;;;;;;;3.50;99.90;;;;;;5106983;28;19928;-74
2022/01/11 11:37:14;;;;;;;;;;;3.40;99.90;;;;;;5107469;28;19921;-74
2022/01/11 11:39:41;;;;;;;;;;;3.40;99.90;;;;;;5093255;28;20097;-76
2022/01/11 11:42:09;;;;;;;;;;;3.40;99.90;;;;;;5087491;28;20119;-74
2022/01/11 11:44:37;;;;;;;;;;;3.40;99.90;;;;;;5105079;28;19920;-73
2022/01/11 11:47:06;;;;;;;;;;;3.40;99.90;;;;;;5107109;28;19920;-76
2022/01/11 11:49:46;;;;;;;;;;;3.40;99.90;;;;;;5106522;28;19920;-77
2022/01/11 11:52:16;;;;;;;;;;;3.40;99.90;;;;;;5104020;28;19921;-74
2022/01/11 11:54:48;;;;;;;;;;;3.30;99.90;;;;;;5089666;28;19920;-75
2022/01/11 11:57:15;;;;;;;;;;;3.30;99.90;;;;;;5086244;28;20200;-74
2022/01/11 11:59:43;;;;;;;;;;;3.30;99.90;;;;;;5085734;28;20231;-74
2022/01/11 12:02:11;;;;;;;;;;;3.30;99.90;;;;;;5087093;28;20200;-75
2022/01/11 12:05:04;;;;;;;;;;;3.30;99.90;;;;;;5106653;28;19926;-75
2022/01/11 12:07:33;;;;;;;;;;;3.30;99.90;;;;;;5086123;28;19920;-73
2022/01/11 12:10:00;;;;;;;;;;;3.40;99.90;;;;;;5086101;28;19924;-75
2022/01/11 12:12:39;;;;;;;;;;;3.40;99.90;;;;;;5084913;28;19921;-75
2022/01/11 12:15:20;;;;;;;;;;;3.40;99.90;;;;;;5103010;28;20226;-74
2022/01/11 12:17:48;;;;;;;;;;;3.40;99.90;;;;;;5104940;28;19920;-75
2022/01/11 12:20:39;;;;;;;;;;;3.30;99.90;;;;;;5106354;28;19926;-75
2022/01/11 12:23:06;;;;;;;;;;;3.30;99.90;;;;;;5095545;28;20222;-75
2022/01/11 12:25:37;;;;;;;;;;;3.20;99.90;;;;;;5085904;28;19920;-75
2022/01/11 12:28:05;;;;;;;;;;;3.30;99.90;;;;;;5086430;28;19920;-74
2022/01/11 12:30:32;;;;;;;;;;;3.30;99.90;;;;;;5085780;28;19921;-75
2022/01/11 12:33:10;;;;;;;;;;;3.30;99.90;;;;;;5089293;28;20172;-75
2022/01/11 12:35:51;;;;;;;;;;;3.30;99.90;;;;;;5086150;28;19920;-75
2022/01/11 12:38:18;;;;;;;;;;;3.30;99.90;;;;;;5102837;28;19920;-75
2022/01/11 12:40:44;;;;;;;;;;;3.30;99.90;;;;;;5118924;22;19920;-70
2022/01/11 12:43:17;;;;;;;;;;;3.30;99.90;;;;;;5104549;28;19942;-70
2022/01/11 12:46:10;;;;;;;;;;;3.30;99.90;;;;;;5105706;28;19920;-70
2022/01/11 12:48:59;;;;;;;;;;;3.20;99.90;;;;;;5106307;28;19920;-70
2022/01/11 12:51:35;;;;;;;;;;;3.20;99.90;;;;;;5104481;28;19951;-70
2022/01/11 12:54:17;;;;;;;;;;;3.20;99.90;;;;;;5100237;28;19920;-70
2022/01/11 12:56:44;;;;;;;;;;;3.20;99.90;;;;;;5105914;28;19966;-70
2022/01/11 12:59:11;;;;;;;;;;;3.20;99.90;;;;;;5105370;28;19927;-70
2022/01/11 13:01:37;;;;;;;;;;;3.20;99.90;;;;;;5103310;28;20070;-70
2022/01/11 13:04:06;;;;;;;;;;;3.20;99.90;;;;;;5095510;28;19960;-70
2022/01/11 13:06:33;;;;;;;;;;;3.30;99.90;;;;;;5086920;28;19920;-70
2022/01/11 13:09:01;;;;;;;;;;;3.20;99.90;;;;;;5085360;28;19921;-71
2022/01/11 13:11:28;;;;;;;;;;;3.30;99.90;;;;;;5085204;28;19920;-71
2022/01/11 13:14:16;;;;;;;;;;;3.20;99.90;;;;;;5096944;28;19924;-70
2022/01/11 13:16:43;;;;;;;;;;;3.20;99.90;;;;;;5105117;28;19966;-70
2022/01/11 13:19:12;;;;;;;;;;;3.20;99.90;;;;;;5105379;28;19920;-74
2022/01/11 13:21:38;;;;;;;;;;;3.20;99.90;;;;;;5104419;28;19920;-72
2022/01/11 13:24:12;;;;;;;;;;;3.20;99.90;;;;;;5099738;28;20102;-69
2022/01/11 13:26:38;;;;;;;;;;;3.20;99.90;;;;;;5105260;28;19926;-69
2022/01/11 13:29:06;;;;;;;;;;;3.20;99.90;;;;;;5104751;28;19920;-67
2022/01/11 13:31:33;;;;;;;;;;;3.20;99.90;;;;;;5104267;28;19969;-69
2022/01/11 13:34:03;;;;;;;;;;;3.20;99.90;;;;;;5098608;28;20398;-69
2022/01/11 13:36:33;;;;;;;;;;;3.20;99.90;;;;;;5096985;28;19920;-68
2022/01/11 13:39:03;;;;;;;;;;;3.20;99.90;;;;;;5084532;28;19920;-68
2022/01/11 13:41:30;;;;;;;;;;;3.30;99.90;;;;;;5084357;28;19920;-69
2022/01/11 13:43:58;;;;;;;;;;;3.30;99.90;;;;;;5093238;28;19943;-68
2022/01/11 13:46:24;;;;;;;;;;;3.30;99.90;;;;;;5104830;28;19928;-69
2022/01/11 13:48:51;;;;;;;;;;;3.40;99.90;;;;;;5104729;28;19920;-68
2022/01/11 13:51:23;;;;;;;;;;;3.40;99.90;;;;;;5104280;28;19924;-69
2022/01/11 13:53:57;;;;;;;;;;;3.40;99.90;;;;;;5103661;28;19926;-69
2022/01/11 13:56:23;;;;;;;;;;;3.30;99.90;;;;;;5099695;28;19980;-69
2022/01/11 13:58:51;;;;;;;;;;;3.30;99.90;;;;;;5104499;28;19920;-69
2022/01/11 14:01:18;;;;;;;;;;;3.30;99.90;;;;;;5098366;28;19984;-69
2022/01/11 14:03:44;;;;;;;;;;;3.20;99.90;;;;;;5101573;28;19927;-68
2022/01/11 14:06:12;;;;;;;;;;;3.20;99.90;;;;;;5102250;28;20234;-68
2022/01/11 14:08:43;;;;;;;;;;;3.20;99.90;;;;;;5101139;28;19920;-68
2022/01/11 14:11:13;;;;;;;;;;;3.20;99.90;;;;;;5100765;28;19920;-69
2022/01/11 14:13:41;;;;;;;;;;;3.20;99.90;;;;;;5095525;28;19920;-71
2022/01/11 14:16:11;;;;;;;;;;;3.20;99.90;;;;;;5099085;28;19920;-71
2022/01/11 14:18:38;;;;;;;;;;;3.20;99.90;;;;;;5102413;28;19926;-68
2022/01/11 14:21:06;;;;;;;;;;;3.20;99.90;;;;;;5103269;28;20214;-68
2022/01/11 14:23:34;;;;;;;;;;;3.20;99.90;;;;;;5098577;28;19920;-68
2022/01/11 14:26:00;;;;;;;;;;;3.20;99.90;;;;;;5103692;28;20149;-69
2022/01/11 14:28:29;;;;;;;;;;;3.10;99.90;;;;;;5100796;28;20146;-68
2022/01/11 14:30:57;;;;;;;;;;;3.10;99.90;;;;;;5102812;28;19920;-67
2022/01/11 14:33:30;;;;;;;;;;;3.20;99.90;;;;;;5103344;28;19920;-67
2022/01/11 14:35:57;;;;;;;;;;;3.20;99.90;;;;;;5097520;28;19958;-67
2022/01/11 14:38:34;;;;;;;;;;;3.10;99.90;;;;;;5103684;28;19920;-66